Time;durP1;ratioP1;P1;durP2;ratioP2;P2;SDS_P1;SDS_P2;PMS_P1;PMS_P2;Temp;Humidity;BMP_temperature;BMP_pressure;BME280_temperature;BME280_humidity;BME280_pressure;Samples;Min_cycle;Max_cycle;Signal;HPM_P1;HPM_P2
2023/01/27 00:00:49;;;;;;;23.73;11.13;;;3.80;99.90;;;;;;5030230;28;20687;-65
2023/01/27 00:03:15;;;;;;;23.08;10.43;;;3.80;99.90;;;;;;5028238;28;20434;-65
2023/01/27 00:05:41;;;;;;;20.55;9.60;;;3.80;99.90;;;;;;5026828;28;20065;-66
2023/01/27 00:08:06;;;;;;;19.23;9.40;;;3.80;99.90;;;;;;5026624;28;20478;-65
2023/01/27 00:10:32;;;;;;;17.05;9.55;;;3.80;99.90;;;;;;5020995;28;20033;-65
2023/01/27 00:15:41;;;;;;;17.45;8.95;;;3.80;99.90;;;;;;5023053;28;20041;-65
2023/01/27 00:18:07;;;;;;;16.45;8.75;;;3.80;99.90;;;;;;5010036;28;20112;-65
2023/01/27 00:26:09;;;;;;;15.98;7.68;;;3.80;99.90;;;;;;5018932;28;20037;-65
2023/01/27 00:28:36;;;;;;;15.70;8.02;;;3.80;99.90;;;;;;5027799;28;20039;-65
2023/01/27 00:31:02;;;;;;;15.48;6.97;;;3.80;99.90;;;;;;5019682;28;20056;-65
2023/01/27 00:33:28;;;;;;;15.45;7.63;;;3.80;99.90;;;;;;5020614;28;20049;-65
2023/01/27 00:36:02;;;;;;;14.55;7.35;;;3.80;99.90;;;;;;5014171;28;20488;-65
2023/01/27 00:38:30;;;;;;;14.05;7.43;;;3.80;99.90;;;;;;5025185;28;20083;-65
2023/01/27 00:41:14;;;;;;;14.60;7.55;;;3.70;99.90;;;;;;5026745;28;20041;-65
2023/01/27 00:43:40;;;;;;;12.60;7.15;;;3.80;99.90;;;;;;5019783;28;20536;-65
2023/01/27 00:46:06;;;;;;;15.60;7.43;;;3.80;99.90;;;;;;5023093;28;20037;-65
2023/01/27 00:48:32;;;;;;;15.13;7.53;;;3.70;99.90;;;;;;5024261;28;20036;-65
2023/01/27 00:50:57;;;;;;;13.65;7.80;;;3.70;99.90;;;;;;5027614;28;20038;-65
2023/01/27 00:53:23;;;;;;;12.93;7.00;;;3.70;99.90;;;;;;5028025;28;20047;-65
2023/01/27 00:55:49;;;;;;;14.38;7.30;;;3.80;99.90;;;;;;5018504;28;20125;-66
2023/01/27 00:58:14;;;;;;;14.82;7.07;;;3.70;99.90;;;;;;5018567;28;20048;-65
2023/01/27 01:00:40;;;;;;;13.18;7.40;;;3.70;99.90;;;;;;5028393;28;20036;-65
2023/01/27 01:03:06;;;;;;;13.20;6.40;;;3.80;99.90;;;;;;5023116;28;20551;-65
2023/01/27 01:05:31;;;;;;;12.88;6.47;;;3.80;99.90;;;;;;5030062;28;20041;-66
2023/01/27 01:07:57;;;;;;;13.50;6.43;;;3.80;99.90;;;;;;5028327;28;20041;-65
2023/01/27 01:10:22;;;;;;;13.07;6.43;;;3.80;99.90;;;;;;5024321;28;20481;-65
2023/01/27 01:12:48;;;;;;;12.25;6.75;;;3.80;99.90;;;;;;5032630;28;20528;-66
2023/01/27 01:15:14;;;;;;;9.90;6.47;;;3.80;99.90;;;;;;5029133;28;20051;-65
2023/01/27 01:17:39;;;;;;;10.18;6.05;;;3.80;99.90;;;;;;5027109;28;20040;-65
2023/01/27 01:20:06;;;;;;;9.70;5.85;;;3.80;99.90;;;;;;5026950;28;20567;-65
2023/01/27 01:22:32;;;;;;;11.27;5.68;;;3.80;99.90;;;;;;5033426;28;20049;-65
2023/01/27 01:24:57;;;;;;;12.15;6.25;;;3.80;99.90;;;;;;5021839;28;20057;-66
2023/01/27 01:27:23;;;;;;;10.13;5.57;;;3.80;99.90;;;;;;5028879;28;20560;-66
2023/01/27 01:29:48;;;;;;;12.40;5.70;;;3.90;99.90;;;;;;5025042;28;20121;-66
2023/01/27 01:32:14;;;;;;;13.65;6.70;;;3.80;99.90;;;;;;5025557;28;20608;-65
2023/01/27 01:34:39;;;;;;;11.50;6.22;;;3.90;99.90;;;;;;5023953;28;20041;-65
2023/01/27 01:37:05;;;;;;;12.23;6.88;;;3.90;99.90;;;;;;5025188;28;20041;-65
2023/01/27 01:39:31;;;;;;;13.27;7.28;;;3.90;99.90;;;;;;5027556;28;20073;-66
2023/01/27 01:41:57;;;;;;;14.30;7.88;;;3.90;99.90;;;;;;5030114;28;20084;-65
2023/01/27 01:44:26;;;;;;;14.77;7.38;;;3.90;99.90;;;;;;5028918;28;20782;-65
2023/01/27 01:46:52;;;;;;;17.58;7.60;;;3.90;99.90;;;;;;5029876;28;20041;-66
2023/01/27 01:49:21;;;;;;;15.13;7.55;;;3.90;99.90;;;;;;5029424;28;20046;-65
2023/01/27 01:51:50;;;;;;;12.52;7.25;;;3.80;99.90;;;;;;5027528;28;20117;-65
2023/01/27 01:54:30;;;;;;;14.03;6.20;;;3.90;99.90;;;;;;5029567;28;20056;-66
2023/01/27 01:57:06;;;;;;;12.85;6.25;;;3.90;99.90;;;;;;5029251;28;20049;-65
2023/01/27 01:59:52;;;;;;;12.38;5.85;;;3.90;99.90;;;;;;5025590;28;20045;-65
2023/01/27 02:02:20;;;;;;;11.15;5.28;;;3.90;99.90;;;;;;5029998;28;20611;-66
2023/01/27 02:04:54;;;;;;;9.43;5.25;;;3.90;99.90;;;;;;5026395;28;20041;-65
2023/01/27 02:07:34;;;;;;;9.27;4.10;;;3.90;99.90;;;;;;5024440;28;20108;-65
2023/01/27 02:10:00;;;;;;;10.20;4.45;;;3.90;99.90;;;;;;5025533;28;20092;-65
2023/01/27 02:12:26;;;;;;;8.27;4.18;;;3.90;99.90;;;;;;5028171;28;20057;-66
2023/01/27 02:14:52;;;;;;;7.80;3.78;;;3.90;99.90;;;;;;5027743;28;20047;-66
2023/01/27 02:17:18;;;;;;;5.65;3.65;;;3.90;99.90;;;;;;5023417;28;20053;-66
2023/01/27 02:20:01;;;;;;;6.55;3.53;;;3.90;99.90;;;;;;5029675;28;20076;-65
2023/01/27 02:22:40;;;;;;;6.50;3.08;;;4.00;99.90;;;;;;5024809;28;20034;-66
2023/01/27 02:25:25;;;;;;;7.03;3.13;;;4.00;99.90;;;;;;5027243;28;20042;-66
2023/01/27 02:27:51;;;;;;;6.53;2.95;;;4.00;99.90;;;;;;5007894;28;20048;-66
2023/01/27 02:30:17;;;;;;;9.18;3.90;;;4.00;99.90;;;;;;5018972;28;20045;-67
2023/01/27 02:32:43;;;;;;;4.85;3.13;;;4.00;99.90;;;;;;5017776;28;20049;-66
2023/01/27 02:35:14;;;;;;;3.90;2.72;;;4.00;99.90;;;;;;5030266;28;20412;-66
2023/01/27 02:37:39;;;;;;;4.32;2.55;;;4.00;99.90;;;;;;5020974;28;20091;-66
2023/01/27 02:40:07;;;;;;;5.00;3.20;;;4.00;99.90;;;;;;5023041;28;20037;-66
2023/01/27 02:42:33;;;;;;;5.18;2.80;;;4.00;99.90;;;;;;5029001;28;20045;-66
2023/01/27 02:44:58;;;;;;;5.75;2.88;;;4.00;99.90;;;;;;5027447;28;20041;-66
2023/01/27 02:47:24;;;;;;;5.80;2.97;;;4.00;99.90;;;;;;5030481;28;20034;-66
2023/01/27 02:49:49;;;;;;;5.55;2.80;;;4.00;99.90;;;;;;5026117;28;20094;-66
2023/01/27 02:52:15;;;;;;;4.15;2.85;;;4.00;99.90;;;;;;5025509;28;20635;-66
2023/01/27 02:54:41;;;;;;;6.70;3.17;;;4.00;99.90;;;;;;5018015;28;20587;-66
2023/01/27 02:57:06;;;;;;;3.47;2.80;;;4.00;99.90;;;;;;5025468;28;20037;-66
2023/01/27 02:59:32;;;;;;;3.92;2.65;;;3.90;99.90;;;;;;5026541;28;20559;-65
2023/01/27 03:01:57;;;;;;;3.28;2.60;;;4.00;99.90;;;;;;5023006;28;20068;-66
2023/01/27 03:04:23;;;;;;;4.07;2.90;;;3.90;99.90;;;;;;5024720;28;20080;-66
2023/01/27 03:06:48;;;;;;;4.15;2.50;;;3.90;99.90;;;;;;5024419;28;20049;-66
2023/01/27 03:09:14;;;;;;;3.35;2.53;;;4.00;99.90;;;;;;5019682;28;20040;-65
2023/01/27 03:20:00;;;;;;;4.75;2.30;;;4.00;99.90;;;;;;5028124;28;20053;-65
2023/01/27 03:22:25;;;;;;;3.38;2.45;;;4.00;99.90;;;;;;5029862;28;20394;-65
2023/01/27 03:24:51;;;;;;;3.25;2.20;;;4.00;99.90;;;;;;5020724;28;20044;-66
2023/01/27 03:27:17;;;;;;;3.58;2.30;;;4.00;99.90;;;;;;5024703;28;20038;-66
2023/01/27 03:29:54;;;;;;;4.80;2.72;;;4.00;99.90;;;;;;5024971;28;20061;-65
2023/01/27 03:32:21;;;;;;;3.78;2.50;;;4.00;99.90;;;;;;5021487;28;20044;-65
2023/01/27 03:34:47;;;;;;;3.70;2.50;;;4.00;99.90;;;;;;5025920;28;20041;-65
2023/01/27 03:48:11;;;;;;;4.40;2.70;;;3.90;99.90;;;;;;5020983;28;20066;-66
2023/01/27 03:50:40;;;;;;;2.83;2.03;;;3.90;99.90;;;;;;5024242;28;20064;-66
2023/01/27 03:53:06;;;;;;;3.65;2.20;;;3.90;99.90;;;;;;5024390;28;20493;-66
2023/01/27 03:55:34;;;;;;;3.05;2.20;;;3.90;99.90;;;;;;5028480;28;20095;-66
2023/01/27 03:58:13;;;;;;;3.28;2.20;;;3.90;99.90;;;;;;5026157;28;20088;-65
2023/01/27 04:00:39;;;;;;;2.92;1.98;;;3.90;99.90;;;;;;5023366;28;20433;-66
2023/01/27 04:08:33;;;;;;;3.60;2.03;;;3.90;99.90;;;;;;5025972;28;20037;-66
2023/01/27 04:13:49;;;;;;;3.85;2.60;;;3.90;99.90;;;;;;5021306;28;20049;-66
2023/01/27 04:16:16;;;;;;;4.63;2.03;;;3.90;99.90;;;;;;5023438;28;20496;-65
2023/01/27 04:18:42;;;;;;;5.72;2.55;;;3.90;99.90;;;;;;5025786;28;20045;-65
2023/01/27 04:21:08;;;;;;;3.33;1.73;;;3.90;99.90;;;;;;5028137;28;20087;-66
2023/01/27 04:23:33;;;;;;;3.80;2.17;;;3.90;99.90;;;;;;5024658;28;20049;-66
2023/01/27 04:25:59;;;;;;;3.42;2.45;;;3.80;99.90;;;;;;5025689;28;20052;-66
2023/01/27 04:28:26;;;;;;;3.33;2.25;;;3.80;99.90;;;;;;5027349;28;20518;-66
2023/01/27 04:30:51;;;;;;;4.93;2.38;;;3.80;99.90;;;;;;5020977;28;20041;-66
2023/01/27 04:33:17;;;;;;;3.78;2.20;;;3.80;99.90;;;;;;5027740;28;20500;-66
2023/01/27 04:35:44;;;;;;;3.40;2.10;;;3.80;99.90;;;;;;5026193;28;20041;-66
2023/01/27 04:38:10;;;;;;;3.67;2.45;;;3.80;99.90;;;;;;5029329;28;20041;-66
2023/01/27 04:40:35;;;;;;;3.97;2.20;;;3.80;99.90;;;;;;5027173;28;20091;-66
2023/01/27 04:43:01;;;;;;;4.50;2.42;;;3.80;99.90;;;;;;5027230;28;20068;-66
2023/01/27 04:45:26;;;;;;;7.63;3.03;;;3.80;99.90;;;;;;5028676;28;20167;-66
2023/01/27 04:47:52;;;;;;;6.45;2.30;;;3.80;99.90;;;;;;5023266;28;20069;-66
2023/01/27 04:50:17;;;;;;;4.78;2.45;;;3.80;99.90;;;;;;5030156;28;20466;-66
2023/01/27 04:52:44;;;;;;;5.40;2.30;;;3.80;99.90;;;;;;5026894;28;20044;-66
2023/01/27 04:55:10;;;;;;;2.72;1.95;;;3.80;99.90;;;;;;5031200;28;20060;-66
2023/01/27 04:57:35;;;;;;;4.63;2.13;;;3.80;99.90;;;;;;5029902;28;20037;-65
2023/01/27 05:00:04;;;;;;;4.28;2.47;;;3.80;99.90;;;;;;5026692;28;20046;-65
2023/01/27 05:02:31;;;;;;;5.10;2.53;;;3.80;99.90;;;;;;5026187;28;20151;-66
2023/01/27 05:04:57;;;;;;;4.57;2.40;;;3.80;99.90;;;;;;5027066;28;20044;-66
2023/01/27 05:07:22;;;;;;;5.70;2.33;;;3.80;99.90;;;;;;5030875;28;20033;-66
2023/01/27 05:09:48;;;;;;;5.97;2.50;;;3.80;99.90;;;;;;5027063;28;20075;-66
2023/01/27 05:12:14;;;;;;;5.03;2.60;;;3.80;99.90;;;;;;5026932;28;20589;-66
2023/01/27 05:14:39;;;;;;;5.57;2.97;;;3.80;99.90;;;;;;5021674;28;20125;-66
2023/01/27 05:17:05;;;;;;;5.53;2.90;;;3.80;99.90;;;;;;5029492;28;20038;-66
2023/01/27 05:19:30;;;;;;;7.22;2.80;;;3.80;99.90;;;;;;5025402;28;20045;-66
2023/01/27 05:21:56;;;;;;;7.57;3.05;;;3.80;99.90;;;;;;5029897;28;20038;-66
2023/01/27 05:24:22;;;;;;;6.95;2.58;;;3.80;99.90;;;;;;5027570;28;20059;-66
2023/01/27 05:26:47;;;;;;;3.58;2.38;;;3.80;99.90;;;;;;5030623;28;20030;-66
2023/01/27 05:29:13;;;;;;;4.95;2.60;;;3.80;99.90;;;;;;5029115;28;20116;-66
2023/01/27 05:31:38;;;;;;;4.78;2.60;;;3.80;99.90;;;;;;5028897;28;20088;-66
2023/01/27 05:34:04;;;;;;;6.57;2.63;;;3.80;99.90;;;;;;5027797;28;20084;-66
2023/01/27 05:36:30;;;;;;;5.00;2.90;;;3.80;99.90;;;;;;5028820;28;20052;-66
2023/01/27 05:38:57;;;;;;;5.50;2.67;;;3.70;99.90;;;;;;5028897;28;20509;-66
2023/01/27 05:41:23;;;;;;;4.45;2.65;;;3.70;99.90;;;;;;5028311;28;20388;-67
2023/01/27 05:43:54;;;;;;;5.47;2.70;;;3.70;99.90;;;;;;5028006;28;20039;-66
2023/01/27 05:46:25;;;;;;;4.82;2.83;;;3.80;99.90;;;;;;5027003;28;20151;-66
2023/01/27 05:48:53;;;;;;;4.47;2.45;;;3.70;99.90;;;;;;5021193;28;20080;-66
2023/01/27 05:51:21;;;;;;;7.00;2.45;;;3.70;99.90;;;;;;5023487;28;20932;-66
2023/01/27 05:53:47;;;;;;;4.25;2.50;;;3.70;99.90;;;;;;5022428;28;20037;-66
2023/01/27 05:56:15;;;;;;;3.97;2.33;;;3.70;99.90;;;;;;5026113;28;20047;-66
2023/01/27 05:58:41;;;;;;;3.75;2.47;;;3.70;99.90;;;;;;5019960;28;20048;-66
2023/01/27 06:01:15;;;;;;;5.50;2.60;;;3.70;99.90;;;;;;5025837;28;20037;-65
2023/01/27 06:03:42;;;;;;;5.50;2.63;;;3.70;99.90;;;;;;5029519;28;20046;-66
2023/01/27 06:06:09;;;;;;;3.45;2.45;;;3.70;99.90;;;;;;5025481;28;20048;-66
2023/01/27 06:08:35;;;;;;;5.32;2.90;;;3.70;99.90;;;;;;5028936;28;20405;-66
2023/01/27 06:11:01;;;;;;;6.80;2.90;;;3.70;99.90;;;;;;5029196;28;20041;-66
2023/01/27 06:13:27;;;;;;;8.05;2.90;;;3.60;99.90;;;;;;5028654;28;20064;-66
2023/01/27 06:15:54;;;;;;;4.22;2.70;;;3.60;99.90;;;;;;5029766;28;20049;-66
2023/01/27 06:18:21;;;;;;;4.68;2.45;;;3.60;99.90;;;;;;5027444;28;20477;-66
2023/01/27 06:20:46;;;;;;;4.47;2.97;;;3.60;99.90;;;;;;5028478;28;20124;-66
2023/01/27 06:23:14;;;;;;;4.53;2.67;;;3.60;99.90;;;;;;5027085;28;20175;-66
2023/01/27 06:25:45;;;;;;;5.50;3.03;;;3.60;99.90;;;;;;5023301;28;20049;-66
2023/01/27 06:28:11;;;;;;;5.75;2.95;;;3.60;99.90;;;;;;5026777;28;20040;-66
2023/01/27 06:30:38;;;;;;;6.30;3.20;;;3.60;99.90;;;;;;5018966;28;20046;-66
2023/01/27 06:33:04;;;;;;;4.85;2.70;;;3.60;99.90;;;;;;5036249;28;20501;-66
2023/01/27 06:35:31;;;;;;;4.43;3.00;;;3.60;99.90;;;;;;5021049;28;20041;-66
2023/01/27 06:37:58;;;;;;;6.55;3.85;;;3.50;99.90;;;;;;5027883;28;20037;-66
2023/01/27 06:40:24;;;;;;;4.78;2.70;;;3.50;99.90;;;;;;5018892;28;20045;-66
2023/01/27 06:42:50;;;;;;;5.30;2.85;;;3.50;99.90;;;;;;5030277;28;20042;-66
2023/01/27 06:45:16;;;;;;;7.18;3.05;;;3.50;99.90;;;;;;5025415;28;21042;-66
2023/01/27 06:47:41;;;;;;;6.80;3.03;;;3.40;99.90;;;;;;5022268;28;20113;-66
2023/01/27 06:50:09;;;;;;;5.53;2.63;;;3.50;99.90;;;;;;5029589;28;20543;-66
2023/01/27 06:52:35;;;;;;;4.47;2.90;;;3.40;99.90;;;;;;5026091;28;20041;-66
2023/01/27 06:55:00;;;;;;;4.13;2.60;;;3.50;99.90;;;;;;5014161;28;20501;-66
2023/01/27 06:57:26;;;;;;;6.97;3.20;;;3.40;99.90;;;;;;5024472;28;20038;-66
2023/01/27 06:59:51;;;;;;;5.93;2.58;;;3.40;99.90;;;;;;5020302;28;20037;-66
2023/01/27 07:02:17;;;;;;;4.93;2.60;;;3.40;99.90;;;;;;5018795;28;20042;-66
2023/01/27 07:04:43;;;;;;;4.75;2.55;;;3.50;99.90;;;;;;5029028;28;20457;-66
2023/01/27 07:07:08;;;;;;;7.50;3.00;;;3.50;99.90;;;;;;5026359;28;20473;-66
2023/01/27 07:09:34;;;;;;;5.70;2.63;;;3.50;99.90;;;;;;5026469;28;20472;-66
2023/01/27 07:11:59;;;;;;;4.85;2.83;;;3.50;99.90;;;;;;5026335;28;20053;-66
2023/01/27 07:14:25;;;;;;;3.45;2.50;;;3.40;99.90;;;;;;5026714;28;20072;-66
2023/01/27 07:16:50;;;;;;;4.55;2.85;;;3.40;99.90;;;;;;5027798;28;20091;-66
2023/01/27 07:19:16;;;;;;;5.93;3.20;;;3.40;99.90;;;;;;5025986;28;20060;-66
2023/01/27 07:21:42;;;;;;;6.47;3.33;;;3.50;99.90;;;;;;5026774;28;20054;-66
2023/01/27 07:24:08;;;;;;;4.28;2.90;;;3.40;99.90;;;;;;5025477;28;20362;-66
2023/01/27 07:26:33;;;;;;;4.65;2.78;;;3.50;99.90;;;;;;5027824;28;20072;-66
2023/01/27 07:28:59;;;;;;;8.27;3.15;;;3.40;99.90;;;;;;5023351;28;20041;-66
2023/01/27 07:31:25;;;;;;;5.43;2.88;;;3.50;99.90;;;;;;5024502;28;20137;-66
2023/01/27 07:33:51;;;;;;;5.65;2.90;;;3.50;99.90;;;;;;5028525;28;20125;-66
2023/01/27 07:36:17;;;;;;;4.43;2.63;;;3.50;99.90;;;;;;5030424;28;20080;-66
2023/01/27 07:38:42;;;;;;;4.30;2.88;;;3.50;99.90;;;;;;5028344;28;20072;-66
2023/01/27 07:41:08;;;;;;;6.90;2.50;;;3.50;99.90;;;;;;5025827;28;20045;-66
2023/01/27 07:43:34;;;;;;;8.55;2.88;;;3.50;99.90;;;;;;5024234;28;20061;-66
2023/01/27 07:46:00;;;;;;;5.93;3.13;;;3.40;99.90;;;;;;5017998;28;20033;-66
2023/01/27 07:48:26;;;;;;;8.70;3.70;;;3.40;99.90;;;;;;5027406;28;20042;-66
2023/01/27 07:50:52;;;;;;;5.28;2.97;;;3.40;99.90;;;;;;5018262;28;20669;-67
2023/01/27 07:53:17;;;;;;;4.20;2.78;;;3.50;99.90;;;;;;5038126;28;20033;-66
2023/01/27 07:55:43;;;;;;;3.58;2.75;;;3.40;99.90;;;;;;5016921;28;20069;-66
2023/01/27 07:58:09;;;;;;;7.00;2.90;;;3.40;99.90;;;;;;5029010;28;20087;-66
2023/01/27 08:00:35;;;;;;;6.47;3.08;;;3.40;99.90;;;;;;5015208;28;20029;-66
2023/01/27 08:03:01;;;;;;;5.40;2.92;;;3.50;99.90;;;;;;5027264;28;20072;-66
2023/01/27 08:05:28;;;;;;;4.70;2.92;;;3.50;99.90;;;;;;5013837;28;20049;-66
2023/01/27 08:07:54;;;;;;;8.90;3.33;;;3.50;99.90;;;;;;5013407;28;20045;-66
2023/01/27 08:10:21;;;;;;;6.22;3.30;;;3.50;99.90;;;;;;5011244;28;20393;-66
2023/01/27 08:12:46;;;;;;;4.95;2.92;;;3.50;99.90;;;;;;5012355;28;20072;-66
2023/01/27 08:15:13;;;;;;;7.85;3.22;;;3.60;99.90;;;;;;5048336;28;20722;-66
2023/01/27 08:17:38;;;;;;;6.07;2.83;;;3.60;99.90;;;;;;5031294;28;20037;-67
2023/01/27 08:20:04;;;;;;;4.00;2.97;;;3.60;99.90;;;;;;5030884;28;20048;-66
2023/01/27 08:22:30;;;;;;;5.38;3.22;;;3.60;99.90;;;;;;5032403;28;20401;-66
2023/01/27 08:24:56;;;;;;;6.32;3.53;;;3.60;99.90;;;;;;5024584;28;20048;-66
2023/01/27 08:27:22;;;;;;;5.05;3.33;;;3.60;99.90;;;;;;5030988;28;20396;-66
2023/01/27 08:29:47;;;;;;;6.85;3.67;;;3.60;99.90;;;;;;5022960;28;20053;-66
2023/01/27 08:32:13;;;;;;;7.78;3.70;;;3.60;99.90;;;;;;5022372;28;20485;-66
2023/01/27 08:34:39;;;;;;;8.40;4.40;;;3.60;99.90;;;;;;5028349;28;20175;-66
2023/01/27 08:37:06;;;;;;;9.35;4.03;;;3.60;99.90;;;;;;5030705;28;20594;-66
2023/01/27 08:39:32;;;;;;;9.30;3.83;;;3.70;99.90;;;;;;5028518;28;20492;-66
2023/01/27 08:41:59;;;;;;;6.60;3.75;;;3.70;99.90;;;;;;5030853;28;20084;-66
2023/01/27 08:44:27;;;;;;;7.97;3.97;;;3.70;99.90;;;;;;5030373;28;20045;-66
2023/01/27 08:46:53;;;;;;;7.22;3.80;;;3.70;99.90;;;;;;5021696;28;20080;-66
2023/01/27 08:49:18;;;;;;;8.85;3.95;;;3.70;99.90;;;;;;5028670;28;20045;-66
2023/01/27 08:51:44;;;;;;;11.57;4.05;;;3.80;99.90;;;;;;5035142;28;20049;-67
2023/01/27 08:54:09;;;;;;;8.63;4.43;;;3.80;99.90;;;;;;5029812;28;20045;-66
2023/01/27 08:56:35;;;;;;;7.70;4.15;;;3.80;99.90;;;;;;5030825;28;20045;-66
2023/01/27 08:59:01;;;;;;;8.93;4.50;;;3.80;99.90;;;;;;5012879;28;20041;-66
2023/01/27 09:01:26;;;;;;;8.98;4.43;;;3.90;99.90;;;;;;5021545;28;20748;-66
2023/01/27 09:03:52;;;;;;;11.23;4.07;;;3.90;99.90;;;;;;5032190;28;20037;-66
2023/01/27 09:06:18;;;;;;;8.00;4.20;;;4.00;99.90;;;;;;5022681;28;20041;-67
2023/01/27 09:09:07;;;;;;;6.75;3.47;;;4.10;99.90;;;;;;5027488;28;20042;-66
2023/01/27 09:11:29;;;;;;;7.20;3.85;;;4.20;99.90;;;;;;5017975;28;20100;-66
2023/01/27 09:13:55;;;;;;;8.75;4.28;;;4.20;99.90;;;;;;5015195;28;20153;-66
2023/01/27 09:16:21;;;;;;;9.75;4.13;;;4.20;99.90;;;;;;5023438;28;20053;-66
2023/01/27 09:18:47;;;;;;;6.57;4.15;;;4.30;99.90;;;;;;5032383;28;20046;-66
2023/01/27 09:21:12;;;;;;;7.40;4.05;;;4.30;99.90;;;;;;5031664;28;20041;-66
2023/01/27 09:23:38;;;;;;;5.97;3.90;;;4.40;99.90;;;;;;5025635;28;20034;-66
2023/01/27 09:26:03;;;;;;;8.23;4.20;;;4.40;99.90;;;;;;5021777;28;20191;-66
2023/01/27 09:28:29;;;;;;;4.53;3.50;;;4.40;99.90;;;;;;5027663;28;20120;-66
2023/01/27 09:30:58;;;;;;;8.23;3.47;;;4.50;99.90;;;;;;5020467;28;20637;-66
2023/01/27 09:33:25;;;;;;;5.27;3.50;;;4.50;99.90;;;;;;5030734;28;20409;-66
2023/01/27 09:36:11;;;;;;;7.72;3.67;;;4.50;99.90;;;;;;5030320;28;20033;-66
2023/01/27 09:38:42;;;;;;;5.10;3.70;;;4.60;99.90;;;;;;5028413;28;20033;-66
2023/01/27 09:41:20;;;;;;;6.57;3.70;;;4.60;99.90;;;;;;5030693;28;20041;-66
2023/01/27 09:44:03;;;;;;;6.75;3.40;;;4.60;99.90;;;;;;5030082;28;20041;-66
2023/01/27 09:46:56;;;;;;;6.50;3.40;;;4.60;99.90;;;;;;5028767;28;20056;-66
2023/01/27 09:49:32;;;;;;;5.15;3.10;;;4.60;99.90;;;;;;5022382;28;20351;-66
2023/01/27 09:52:28;;;;;;;6.03;3.30;;;4.70;99.90;;;;;;5028731;28;20042;-66
2023/01/27 09:55:28;;;;;;;7.63;3.20;;;4.70;99.90;;;;;;5019048;28;20045;-67
2023/01/27 09:58:08;;;;;;;4.82;2.90;;;4.60;99.90;;;;;;5032946;28;20049;-66
2023/01/27 10:01:05;;;;;;;5.53;2.90;;;4.50;99.90;;;;;;5023531;28;20386;-67
2023/01/27 10:03:48;;;;;;;4.93;2.67;;;4.50;99.90;;;;;;5006337;28;20041;-66
2023/01/27 10:06:47;;;;;;;3.47;2.20;;;4.50;99.90;;;;;;5027295;28;20551;-66
2023/01/27 10:09:15;;;;;;;5.10;2.72;;;4.50;99.90;;;;;;5023549;28;20037;-66
2023/01/27 10:12:12;;;;;;;5.53;2.50;;;4.50;99.90;;;;;;5022585;28;20513;-66
2023/01/27 10:14:52;;;;;;;9.85;2.80;;;4.50;99.90;;;;;;5018714;28;20033;-66
2023/01/27 10:17:33;;;;;;;3.25;2.40;;;4.50;99.90;;;;;;5017086;28;20554;-66
2023/01/27 10:20:19;;;;;;;4.22;2.70;;;4.50;99.90;;;;;;5028187;28;20037;-66
2023/01/27 10:23:04;;;;;;;7.85;2.65;;;4.50;99.90;;;;;;5026556;28;20084;-66
2023/01/27 10:26:03;;;;;;;8.88;2.58;;;4.50;99.90;;;;;;5023409;28;20037;-66
2023/01/27 10:28:30;;;;;;;3.95;3.10;;;4.50;99.90;;;;;;5023951;28;20045;-66
2023/01/27 10:31:25;;;;;;;6.13;2.63;;;4.50;99.90;;;;;;5022565;28;20484;-66
2023/01/27 10:33:57;;;;;;;6.72;2.22;;;4.50;99.90;;;;;;5027458;28;20125;-66
2023/01/27 10:36:28;;;;;;;5.25;2.70;;;4.40;99.90;;;;;;5026788;28;20037;-66
2023/01/27 10:38:57;;;;;;;3.70;2.45;;;4.40;99.90;;;;;;5024829;28;20037;-66
2023/01/27 10:41:44;;;;;;;3.95;2.30;;;4.40;99.90;;;;;;5028615;28;20433;-65
2023/01/27 10:44:23;;;;;;;4.10;2.38;;;4.40;99.90;;;;;;5021997;28;20036;-66
2023/01/27 10:47:10;;;;;;;4.57;2.20;;;4.40;99.90;;;;;;5022618;28;20429;-66
2023/01/27 10:49:44;;;;;;;3.40;2.05;;;4.40;99.90;;;;;;5013813;28;20064;-65
2023/01/27 10:52:15;;;;;;;2.33;2.05;;;4.30;99.90;;;;;;5032170;28;20116;-66
2023/01/27 10:54:59;;;;;;;3.40;1.90;;;4.30;99.90;;;;;;5024250;28;20104;-65
2023/01/27 10:57:45;;;;;;;4.63;2.42;;;4.30;99.90;;;;;;5123603;27;20416;-64
2023/01/27 11:00:24;;;;;;;3.20;2.17;;;4.30;99.90;;;;;;5093103;28;20044;-64
2023/01/27 11:03:01;;;;;;;2.38;1.73;;;4.30;99.90;;;;;;5105424;28;20050;-64
2023/01/27 11:05:44;;;;;;;3.58;1.98;;;4.30;99.90;;;;;;5107249;28;20047;-63
2023/01/27 11:08:19;;;;;;;4.68;2.25;;;4.30;99.90;;;;;;5102146;28;20050;-63
2023/01/27 11:13:33;;;;;;;3.03;2.38;;;4.30;99.90;;;;;;5101915;28;20208;-63
2023/01/27 11:16:00;;;;;;;3.88;2.45;;;4.30;99.90;;;;;;5098039;28;20379;-64
2023/01/27 11:18:34;;;;;;;3.20;2.30;;;4.40;99.90;;;;;;5103872;28;20479;-64
2023/01/27 11:21:05;;;;;;;3.10;2.38;;;4.40;99.90;;;;;;5101635;28;20144;-63
2023/01/27 11:23:39;;;;;;;4.93;2.47;;;4.30;99.90;;;;;;5099844;28;20075;-63
2023/01/27 11:26:26;;;;;;;2.92;2.17;;;4.40;99.90;;;;;;5089234;28;20036;-63
2023/01/27 11:29:14;;;;;;;2.40;1.92;;;4.40;99.90;;;;;;5093688;28;20044;-63
2023/01/27 11:32:14;;;;;;;2.60;1.98;;;4.30;99.90;;;;;;5104136;28;20101;-64
2023/01/27 11:35:02;;;;;;;2.83;1.77;;;4.40;99.90;;;;;;5104323;28;20035;-64
2023/01/27 11:37:34;;;;;;;2.35;1.63;;;4.40;99.90;;;;;;5104033;28;20047;-66
2023/01/27 11:40:00;;;;;;;4.28;1.90;;;4.40;99.90;;;;;;5087292;28;20027;-64
2023/01/27 11:42:35;;;;;;;2.58;1.50;;;4.50;99.90;;;;;;5104372;28;20040;-64
2023/01/27 11:45:01;;;;;;;2.00;1.60;;;4.50;99.90;;;;;;5094026;28;20432;-64
2023/01/27 11:47:35;;;;;;;2.47;1.58;;;4.50;99.90;;;;;;5093967;28;20051;-64
2023/01/27 11:50:03;;;;;;;4.50;2.45;;;4.50;99.90;;;;;;5090376;28;20040;-64
2023/01/27 11:52:29;;;;;;;3.45;1.80;;;4.60;99.90;;;;;;5107769;28;20044;-64
2023/01/27 11:55:13;;;;;;;2.92;2.10;;;4.60;99.90;;;;;;5093704;28;20047;-64
2023/01/27 11:57:45;;;;;;;2.75;1.90;;;4.60;99.90;;;;;;5101289;28;20051;-64
2023/01/27 12:00:20;;;;;;;2.45;1.80;;;4.60;99.90;;;;;;5105848;28;20039;-65
2023/01/27 12:03:02;;;;;;;2.92;1.45;;;4.70;99.90;;;;;;5103310;28;20052;-64
2023/01/27 12:05:34;;;;;;;2.22;1.63;;;4.70;99.90;;;;;;5107689;28;20083;-64
2023/01/27 12:08:03;;;;;;;2.33;1.52;;;4.70;99.90;;;;;;5098590;28;20047;-64
2023/01/27 12:10:43;;;;;;;2.05;1.60;;;4.80;99.90;;;;;;5091514;28;20043;-64
2023/01/27 12:13:20;;;;;;;2.13;1.90;;;4.80;99.90;;;;;;5090805;28;20089;-64
2023/01/27 12:16:01;;;;;;;2.78;2.33;;;4.80;99.90;;;;;;5091778;28;20055;-64
2023/01/27 12:18:31;;;;;;;3.35;2.63;;;4.90;99.90;;;;;;5093912;28;20471;-64
2023/01/27 12:21:07;;;;;;;;;;;4.80;99.90;;;;;;5094182;28;20059;-64
2023/01/27 12:23:45;;;;;;;3.38;2.33;;;4.90;99.90;;;;;;5092418;28;19962;-64
2023/01/27 12:26:11;;;;;;;3.03;2.28;;;4.90;99.90;;;;;;5094229;28;20043;-64
2023/01/27 12:28:49;;;;;;;2.28;1.90;;;4.90;99.90;;;;;;5087610;28;20598;-64
2023/01/27 12:31:29;;;;;;;2.38;1.42;;;4.90;99.90;;;;;;5084742;28;20047;-64
2023/01/27 12:34:01;;;;;;;2.42;1.80;;;4.90;99.90;;;;;;5091840;28;20503;-64
2023/01/27 12:36:27;;;;;;;2.08;1.65;;;4.90;99.90;;;;;;5093478;28;20040;-64
2023/01/27 12:38:57;;;;;;;2.03;1.83;;;4.90;99.90;;;;;;5087141;28;20078;-64
2023/01/27 12:41:31;;;;;;;2.13;1.40;;;4.90;99.90;;;;;;5085205;28;20032;-64
2023/01/27 12:44:06;;;;;;;2.55;1.60;;;4.80;99.90;;;;;;5092912;28;20074;-64
2023/01/27 12:46:32;;;;;;;1.42;1.20;;;4.80;99.90;;;;;;5092337;28;20036;-64
2023/01/27 12:49:19;;;;;;;1.60;1.50;;;4.80;99.90;;;;;;5079115;28;20035;-64
2023/01/27 12:51:52;;;;;;;2.03;1.42;;;4.80;99.90;;;;;;5094128;28;20040;-64
2023/01/27 12:54:27;;;;;;;1.83;1.35;;;4.80;99.90;;;;;;5090512;28;20040;-64
2023/01/27 12:56:55;;;;;;;2.08;1.30;;;4.90;99.90;;;;;;5092680;28;20499;-64
2023/01/27 12:59:24;;;;;;;3.20;1.73;;;4.90;99.90;;;;;;5083407;28;20054;-65
2023/01/27 13:01:59;;;;;;;1.95;1.60;;;4.90;99.90;;;;;;5093616;28;20042;-64
2023/01/27 13:04:25;;;;;;;1.92;1.50;;;4.90;99.90;;;;;;5092659;28;20040;-65
2023/01/27 13:07:04;;;;;;;2.05;1.40;;;4.80;99.90;;;;;;5092990;28;20067;-64
2023/01/27 13:09:49;;;;;;;1.63;1.52;;;4.80;99.90;;;;;;5082403;28;20042;-65
2023/01/27 13:12:20;;;;;;;4.07;1.40;;;4.80;99.90;;;;;;5091684;28;20078;-64
2023/01/27 13:14:50;;;;;;;1.85;1.70;;;4.80;99.90;;;;;;5091413;28;20047;-65
2023/01/27 13:17:36;;;;;;;2.10;1.50;;;4.90;99.90;;;;;;5092028;28;20073;-65
2023/01/27 13:20:19;;;;;;;2.28;1.80;;;4.80;99.90;;;;;;5084317;28;20046;-64
2023/01/27 13:22:58;;;;;;;3.35;1.50;;;4.80;99.90;;;;;;5092290;28;20028;-64
2023/01/27 13:25:31;;;;;;;2.10;1.67;;;4.80;99.90;;;;;;5090193;28;20048;-64
2023/01/27 13:27:58;;;;;;;2.00;1.38;;;4.90;99.90;;;;;;5088017;28;20460;-64
2023/01/27 13:30:34;;;;;;;1.65;1.52;;;4.80;99.90;;;;;;5089584;28;20491;-65
2023/01/27 13:33:23;;;;;;;1.70;1.60;;;4.80;99.90;;;;;;5091697;28;20035;-64
2023/01/27 13:36:18;;;;;;;1.95;1.75;;;4.80;99.90;;;;;;5088467;28;20083;-64
2023/01/27 13:38:56;;;;;;;2.00;1.80;;;4.90;99.90;;;;;;5077745;28;20048;-64
2023/01/27 13:41:48;;;;;;;2.03;1.83;;;4.80;99.90;;;;;;5079450;28;20048;-65
2023/01/27 13:44:39;;;;;;;2.58;2.00;;;4.90;99.90;;;;;;5077301;28;20112;-64
2023/01/27 13:47:14;;;;;;;3.58;2.10;;;4.90;99.90;;;;;;5092177;28;20373;-65
2023/01/27 13:49:46;;;;;;;3.60;2.20;;;4.90;99.90;;;;;;5090895;28;20118;-65